sensor_id;sensor_type;location;lat;lon;timestamp;pressure;altitude;pressure_sealevel;temperature;humidity
22753;BME280;11543;43.144;24.684;2024-03-23T00:51:38;98934.63;;;6.92;62.27
22753;BME280;11543;43.144;24.684;2024-03-23T00:54:04;98922.78;;;6.85;62.01
22753;BME280;11543;43.144;24.684;2024-03-23T00:56:29;98924.75;;;6.83;61.86
22753;BME280;11543;43.144;24.684;2024-03-23T00:58:55;98914.34;;;6.80;61.73
22753;BME280;11543;43.144;24.684;2024-03-23T01:01:20;98921.22;;;6.83;61.93
22753;BME280;11543;43.144;24.684;2024-03-23T01:03:46;98924.75;;;6.83;61.86
22753;BME280;11543;43.144;24.684;2024-03-23T01:06:12;98937.19;;;6.94;61.97
22753;BME280;11543;43.144;24.684;2024-03-23T01:08:37;98920.09;;;6.96;61.30
22753;BME280;11543;43.144;24.684;2024-03-23T01:11:03;98920.31;;;6.93;61.49
22753;BME280;11543;43.144;24.684;2024-03-23T01:13:29;98898.34;;;6.80;61.39
22753;BME280;11543;43.144;24.684;2024-03-23T01:15:56;98933.88;;;7.01;61.38
22753;BME280;11543;43.144;24.684;2024-03-23T01:18:22;98930.22;;;7.02;60.83
22753;BME280;11543;43.144;24.684;2024-03-23T01:20:48;98920.09;;;6.96;61.16
22753;BME280;11543;43.144;24.684;2024-03-23T01:23:13;98906.53;;;6.88;61.25
22753;BME280;11543;43.144;24.684;2024-03-23T01:25:39;98899.50;;;6.87;60.81
22753;BME280;11543;43.144;24.684;2024-03-23T01:28:05;98909.66;;;6.93;61.30
22753;BME280;11543;43.144;24.684;2024-03-23T01:30:35;98914.75;;;6.96;61.20
22753;BME280;11543;43.144;24.684;2024-03-23T01:33:01;98921.78;;;6.97;61.16
22753;BME280;11543;43.144;24.684;2024-03-23T01:35:28;98923.78;;;7.05;60.89
22753;BME280;11543;43.144;24.684;2024-03-23T01:37:53;98895.59;;;6.91;61.12
22753;BME280;11543;43.144;24.684;2024-03-23T01:40:19;98906.53;;;6.88;61.57
22753;BME280;11543;43.144;24.684;2024-03-23T01:42:58;98906.97;;;6.72;61.57
22753;BME280;11543;43.144;24.684;2024-03-23T01:45:24;98900.25;;;6.36;61.66
22753;BME280;11543;43.144;24.684;2024-03-23T01:47:53;98919.44;;;6.19;62.26
22753;BME280;11543;43.144;24.684;2024-03-23T01:50:20;98879.78;;;5.83;62.71
22753;BME280;11543;43.144;24.684;2024-03-23T01:52:47;98919.13;;;5.90;63.85
22753;BME280;11543;43.144;24.684;2024-03-23T01:55:13;98916.53;;;5.89;64.15
22753;BME280;11543;43.144;24.684;2024-03-23T01:57:39;98921.41;;;5.72;63.96
22753;BME280;11543;43.144;24.684;2024-03-23T02:00:05;98922.16;;;5.63;64.14
22753;BME280;11543;43.144;24.684;2024-03-23T02:02:31;98919.00;;;5.47;64.71
22753;BME280;11543;43.144;24.684;2024-03-23T02:04:57;98900.88;;;5.41;65.61
22753;BME280;11543;43.144;24.684;2024-03-23T02:07:22;98921.19;;;5.53;66.03
22753;BME280;11543;43.144;24.684;2024-03-23T02:09:49;98914.66;;;5.46;66.45
22753;BME280;11543;43.144;24.684;2024-03-23T02:12:15;98902.69;;;5.52;66.93
22753;BME280;11543;43.144;24.684;2024-03-23T02:14:41;98896.50;;;5.73;66.36
22753;BME280;11543;43.144;24.684;2024-03-23T02:17:06;98912.44;;;5.96;65.75
22753;BME280;11543;43.144;24.684;2024-03-23T02:19:32;98912.34;;;6.09;65.50
22753;BME280;11543;43.144;24.684;2024-03-23T02:22:00;98902.28;;;6.12;64.89
22753;BME280;11543;43.144;24.684;2024-03-23T02:24:26;98907.56;;;6.23;64.59
22753;BME280;11543;43.144;24.684;2024-03-23T02:26:51;98902.69;;;6.28;64.08
22753;BME280;11543;43.144;24.684;2024-03-23T02:29:17;98907.00;;;6.41;64.06
22753;BME280;11543;43.144;24.684;2024-03-23T02:31:44;98905.06;;;6.43;63.90
22753;BME280;11543;43.144;24.684;2024-03-23T02:34:10;98906.00;;;6.53;63.67
22753;BME280;11543;43.144;24.684;2024-03-23T02:36:36;98876.72;;;6.42;63.56
22753;BME280;11543;43.144;24.684;2024-03-23T02:39:02;98903.78;;;6.58;63.62
22753;BME280;11543;43.144;24.684;2024-03-23T02:41:31;98904.56;;;6.49;63.43
22753;BME280;11543;43.144;24.684;2024-03-23T02:43:56;98888.09;;;6.44;63.53
22753;BME280;11543;43.144;24.684;2024-03-23T02:46:22;98916.13;;;6.59;63.50
22753;BME280;11543;43.144;24.684;2024-03-23T02:48:51;98910.81;;;6.59;63.71
22753;BME280;11543;43.144;24.684;2024-03-23T02:51:16;98913.94;;;6.64;63.57
22753;BME280;11543;43.144;24.684;2024-03-23T02:53:42;98893.97;;;6.58;63.54
22753;BME280;11543;43.144;24.684;2024-03-23T02:56:07;98899.16;;;6.60;63.22
22753;BME280;11543;43.144;24.684;2024-03-23T02:58:33;98911.00;;;6.67;63.04
22753;BME280;11543;43.144;24.684;2024-03-23T03:00:59;98903.53;;;6.61;63.15
22753;BME280;11543;43.144;24.684;2024-03-23T03:03:25;98905.47;;;6.59;62.94
22753;BME280;11543;43.144;24.684;2024-03-23T03:05:57;98891.94;;;6.51;63.05
22753;BME280;11543;43.144;24.684;2024-03-23T03:08:22;98883.75;;;6.43;63.06
22753;BME280;11543;43.144;24.684;2024-03-23T03:10:48;98891.75;;;6.43;63.28
22753;BME280;11543;43.144;24.684;2024-03-23T03:13:13;98911.44;;;6.51;62.94
22753;BME280;11543;43.144;24.684;2024-03-23T03:15:40;98883.16;;;6.39;63.02
22753;BME280;11543;43.144;24.684;2024-03-23T03:18:06;98887.91;;;6.35;63.32
22753;BME280;11543;43.144;24.684;2024-03-23T03:20:31;98896.88;;;6.34;63.21
22753;BME280;11543;43.144;24.684;2024-03-23T03:22:57;98895.00;;;6.14;63.73
22753;BME280;11543;43.144;24.684;2024-03-23T03:25:22;98907.97;;;6.07;63.49
22753;BME280;11543;43.144;24.684;2024-03-23T03:27:48;98902.41;;;5.99;64.03
22753;BME280;11543;43.144;24.684;2024-03-23T03:30:13;98904.69;;;5.82;64.00
22753;BME280;11543;43.144;24.684;2024-03-23T03:32:39;98911.25;;;5.78;64.46
22753;BME280;11543;43.144;24.684;2024-03-23T03:35:04;98898.44;;;5.49;64.40
22753;BME280;11543;43.144;24.684;2024-03-23T03:37:30;98891.44;;;5.48;65.53
22753;BME280;11543;43.144;24.684;2024-03-23T03:39:55;98892.88;;;5.41;65.35
22753;BME280;11543;43.144;24.684;2024-03-23T03:42:21;98877.28;;;5.36;66.03
22753;BME280;11543;43.144;24.684;2024-03-23T03:44:46;98867.03;;;5.32;65.91
22753;BME280;11543;43.144;24.684;2024-03-23T03:47:12;98898.44;;;5.49;66.20
22753;BME280;11543;43.144;24.684;2024-03-23T03:49:37;98905.47;;;5.50;66.07
22753;BME280;11543;43.144;24.684;2024-03-23T03:52:03;98886.34;;;5.45;65.98
22753;BME280;11543;43.144;24.684;2024-03-23T03:54:28;98868.94;;;5.41;65.89
22753;BME280;11543;43.144;24.684;2024-03-23T03:56:54;98889.50;;;5.61;65.48
22753;BME280;11543;43.144;24.684;2024-03-23T03:59:19;98888.28;;;5.65;65.12
22753;BME280;11543;43.144;24.684;2024-03-23T04:01:46;98897.47;;;5.72;65.20
22753;BME280;11543;43.144;24.684;2024-03-23T04:04:11;98888.16;;;5.56;64.93
22753;BME280;11543;43.144;24.684;2024-03-23T04:06:37;98903.91;;;5.36;64.52
22753;BME280;11543;43.144;24.684;2024-03-23T04:09:02;98896.59;;;5.16;65.86
22753;BME280;11543;43.144;24.684;2024-03-23T04:11:28;98907.81;;;4.97;65.51
22753;BME280;11543;43.144;24.684;2024-03-23T04:13:53;98882.66;;;4.79;66.67
22753;BME280;11543;43.144;24.684;2024-03-23T04:16:27;98898.88;;;4.87;67.64
22753;BME280;11543;43.144;24.684;2024-03-23T04:18:53;98883.16;;;4.95;67.35
22753;BME280;11543;43.144;24.684;2024-03-23T04:21:19;98887.28;;;5.10;67.44
22753;BME280;11543;43.144;24.684;2024-03-23T04:23:44;98893.38;;;5.24;67.32
22753;BME280;11543;43.144;24.684;2024-03-23T04:26:10;98886.84;;;5.28;66.71
22753;BME280;11543;43.144;24.684;2024-03-23T04:28:36;98881.28;;;5.31;65.77
22753;BME280;11543;43.144;24.684;2024-03-23T04:31:04;98896.16;;;5.44;66.03
22753;BME280;11543;43.144;24.684;2024-03-23T04:33:30;98861.22;;;5.38;65.62
22753;BME280;11543;43.144;24.684;2024-03-23T04:35:56;98876.31;;;5.49;65.51
22753;BME280;11543;43.144;24.684;2024-03-23T04:38:22;98884.66;;;5.44;65.55
22753;BME280;11543;43.144;24.684;2024-03-23T04:41:08;98893.25;;;5.59;65.12
22753;BME280;11543;43.144;24.684;2024-03-23T04:43:36;98893.00;;;5.62;65.76
22753;BME280;11543;43.144;24.684;2024-03-23T04:46:01;98875.94;;;5.53;65.50
22753;BME280;11543;43.144;24.684;2024-03-23T04:48:26;98884.31;;;5.49;65.27
22753;BME280;11543;43.144;24.684;2024-03-23T04:50:57;98894.81;;;5.28;65.63
22753;BME280;11543;43.144;24.684;2024-03-23T04:53:24;98891.16;;;5.06;65.88
22753;BME280;11543;43.144;24.684;2024-03-23T04:55:54;98894.28;;;4.89;66.49
22753;BME280;11543;43.144;24.684;2024-03-23T04:58:19;98875.41;;;4.70;66.32
22753;BME280;11543;43.144;24.684;2024-03-23T05:00:45;98889.91;;;4.77;67.49
22753;BME280;11543;43.144;24.684;2024-03-23T05:03:10;98891.84;;;4.75;67.75
22753;BME280;11543;43.144;24.684;2024-03-23T05:05:36;98877.19;;;4.69;67.88
22753;BME280;11543;43.144;24.684;2024-03-23T05:08:01;98890.50;;;4.80;68.29
22753;BME280;11543;43.144;24.684;2024-03-23T05:10:27;98873.72;;;4.80;68.31
22753;BME280;11543;43.144;24.684;2024-03-23T05:12:53;98895.00;;;4.91;68.31
22753;BME280;11543;43.144;24.684;2024-03-23T05:15:18;98885.56;;;4.87;68.86
22753;BME280;11543;43.144;24.684;2024-03-23T05:17:43;98874.47;;;4.93;68.73
22753;BME280;11543;43.144;24.684;2024-03-23T05:20:09;98901.56;;;5.09;68.86
22753;BME280;11543;43.144;24.684;2024-03-23T05:22:39;98907.34;;;5.03;68.44
22753;BME280;11543;43.144;24.684;2024-03-23T05:25:05;98886.19;;;4.91;69.02
22753;BME280;11543;43.144;24.684;2024-03-23T05:27:33;98876.16;;;4.94;69.39
22753;BME280;11543;43.144;24.684;2024-03-23T05:29:59;98877.88;;;5.18;69.90
22753;BME280;11543;43.144;24.684;2024-03-23T05:32:24;98889.88;;;5.46;69.00
22753;BME280;11543;43.144;24.684;2024-03-23T05:34:50;98878.13;;;5.59;68.65
22753;BME280;11543;43.144;24.684;2024-03-23T05:37:21;98888.47;;;5.85;68.23
22753;BME280;11543;43.144;24.684;2024-03-23T05:39:47;98882.69;;;5.91;68.00
22753;BME280;11543;43.144;24.684;2024-03-23T05:42:15;98861.59;;;5.88;67.38
22753;BME280;11543;43.144;24.684;2024-03-23T05:44:45;98877.19;;;6.03;67.48
22753;BME280;11543;43.144;24.684;2024-03-23T05:47:11;98879.53;;;6.08;67.19
22753;BME280;11543;43.144;24.684;2024-03-23T05:49:38;98875.88;;;6.09;67.07
22753;BME280;11543;43.144;24.684;2024-03-23T05:52:04;98884.34;;;6.14;67.41
22753;BME280;11543;43.144;24.684;2024-03-23T05:54:29;98882.41;;;6.16;67.22
22753;BME280;11543;43.144;24.684;2024-03-23T05:56:55;98883.00;;;6.20;67.84
22753;BME280;11543;43.144;24.684;2024-03-23T05:59:21;98870.31;;;6.12;67.59
22753;BME280;11543;43.144;24.684;2024-03-23T06:01:47;98861.34;;;6.13;67.70
22753;BME280;11543;43.144;24.684;2024-03-23T06:04:13;98864.56;;;6.28;67.55
22753;BME280;11543;43.144;24.684;2024-03-23T06:06:39;98886.28;;;6.44;67.41
22753;BME280;11543;43.144;24.684;2024-03-23T06:09:05;98881.81;;;6.45;67.56
22753;BME280;11543;43.144;24.684;2024-03-23T06:11:31;98864.38;;;6.41;67.69
22753;BME280;11543;43.144;24.684;2024-03-23T06:13:56;98865.28;;;6.51;67.20
22753;BME280;11543;43.144;24.684;2024-03-23T06:16:22;98866.47;;;6.58;67.37
22753;BME280;11543;43.144;24.684;2024-03-23T06:18:50;98872.13;;;6.64;67.55
22753;BME280;11543;43.144;24.684;2024-03-23T06:21:15;98861.72;;;6.61;67.67
22753;BME280;11543;43.144;24.684;2024-03-23T06:23:41;98836.94;;;6.50;68.08
22753;BME280;11543;43.144;24.684;2024-03-23T06:26:07;98860.34;;;6.67;68.08
22753;BME280;11543;43.144;24.684;2024-03-23T06:28:34;98862.94;;;6.78;68.06
22753;BME280;11543;43.144;24.684;2024-03-23T06:30:59;98855.66;;;6.80;67.85
22753;BME280;11543;43.144;24.684;2024-03-23T06:33:25;98865.28;;;6.92;67.95
22753;BME280;11543;43.144;24.684;2024-03-23T06:35:51;98858.94;;;7.05;67.85
22753;BME280;11543;43.144;24.684;2024-03-23T06:38:17;98834.59;;;6.98;68.23
22753;BME280;11543;43.144;24.684;2024-03-23T06:40:43;98839.91;;;7.19;67.89
22753;BME280;11543;43.144;24.684;2024-03-23T06:43:13;98830.38;;;7.26;67.76
22753;BME280;11543;43.144;24.684;2024-03-23T06:45:39;98858.41;;;7.51;67.43
22753;BME280;11543;43.144;24.684;2024-03-23T06:48:05;98847.34;;;7.55;67.36
22753;BME280;11543;43.144;24.684;2024-03-23T06:50:34;98851.56;;;7.67;67.23
22753;BME280;11543;43.144;24.684;2024-03-23T06:53:00;98837.25;;;7.68;67.12
22753;BME280;11543;43.144;24.684;2024-03-23T06:55:30;98848.28;;;7.85;66.90
22753;BME280;11543;43.144;24.684;2024-03-23T06:57:55;98831.69;;;7.91;66.79
22753;BME280;11543;43.144;24.684;2024-03-23T07:00:20;98849.16;;;8.14;66.94
22753;BME280;11543;43.144;24.684;2024-03-23T07:02:46;98822.44;;;8.14;67.12
22753;BME280;11543;43.144;24.684;2024-03-23T07:05:11;98810.63;;;8.26;67.06
22753;BME280;11543;43.144;24.684;2024-03-23T07:07:38;98830.88;;;8.58;66.69
22753;BME280;11543;43.144;24.684;2024-03-23T07:10:05;98808.50;;;8.59;66.11
22753;BME280;11543;43.144;24.684;2024-03-23T07:12:32;98815.69;;;8.68;65.22
22753;BME280;11543;43.144;24.684;2024-03-23T07:14:57;98810.28;;;8.87;64.45
22753;BME280;11543;43.144;24.684;2024-03-23T07:17:23;98791.97;;;8.92;63.88
22753;BME280;11543;43.144;24.684;2024-03-23T07:19:49;98798.06;;;9.22;63.66
22753;BME280;11543;43.144;24.684;2024-03-23T07:22:14;98809.75;;;9.48;63.08
22753;BME280;11543;43.144;24.684;2024-03-23T07:24:40;98808.84;;;9.67;62.27
22753;BME280;11543;43.144;24.684;2024-03-23T07:27:07;98818.38;;;9.97;61.46
22753;BME280;11543;43.144;24.684;2024-03-23T07:29:35;98798.06;;;10.12;60.42
22753;BME280;11543;43.144;24.684;2024-03-23T07:32:02;98813.38;;;10.47;60.06
22753;BME280;11543;43.144;24.684;2024-03-23T07:34:27;98789.28;;;10.56;58.82
22753;BME280;11543;43.144;24.684;2024-03-23T07:36:53;98771.63;;;10.71;57.93
22753;BME280;11543;43.144;24.684;2024-03-23T07:39:18;98808.59;;;11.11;57.00
22753;BME280;11543;43.144;24.684;2024-03-23T07:41:44;98798.00;;;11.35;56.07
22753;BME280;11543;43.144;24.684;2024-03-23T07:44:10;98773.53;;;11.46;55.60
22753;BME280;11543;43.144;24.684;2024-03-23T07:46:36;98783.34;;;11.72;54.83
22753;BME280;11543;43.144;24.684;2024-03-23T07:49:04;98788.16;;;12.10;53.27
22753;BME280;11543;43.144;24.684;2024-03-23T07:51:31;98787.88;;;12.38;52.21
22753;BME280;11543;43.144;24.684;2024-03-23T07:53:56;98776.78;;;12.57;51.54
22753;BME280;11543;43.144;24.684;2024-03-23T07:56:22;98779.94;;;12.85;50.52
22753;BME280;11543;43.144;24.684;2024-03-23T07:58:49;98790.16;;;13.14;50.06
22753;BME280;11543;43.144;24.684;2024-03-23T08:01:15;98759.38;;;13.17;49.36
22753;BME280;11543;43.144;24.684;2024-03-23T08:03:44;98786.47;;;13.62;47.62
22753;BME280;11543;43.144;24.684;2024-03-23T08:06:12;98780.44;;;13.91;46.38
22753;BME280;11543;43.144;24.684;2024-03-23T08:08:38;98784.66;;;14.17;44.12
22753;BME280;11543;43.144;24.684;2024-03-23T08:11:04;98774.94;;;14.53;42.69
22753;BME280;11543;43.144;24.684;2024-03-23T08:13:30;98754.28;;;14.60;42.88
22753;BME280;11543;43.144;24.684;2024-03-23T08:16:00;98752.53;;;14.68;42.97
22753;BME280;11543;43.144;24.684;2024-03-23T08:18:26;98772.34;;;14.97;42.37
22753;BME280;11543;43.144;24.684;2024-03-23T08:21:02;98765.00;;;15.06;42.59
22753;BME280;11543;43.144;24.684;2024-03-23T08:23:29;98753.44;;;15.12;41.94
22753;BME280;11543;43.144;24.684;2024-03-23T08:25:58;98759.31;;;15.30;41.68
22753;BME280;11543;43.144;24.684;2024-03-23T08:28:26;98767.22;;;15.47;41.87
22753;BME280;11543;43.144;24.684;2024-03-23T08:30:56;98761.28;;;15.66;40.46
22753;BME280;11543;43.144;24.684;2024-03-23T08:33:22;98747.56;;;15.68;38.62
22753;BME280;11543;43.144;24.684;2024-03-23T08:35:57;98756.88;;;15.80;38.78
22753;BME280;11543;43.144;24.684;2024-03-23T08:38:23;98743.53;;;15.78;38.14
22753;BME280;11543;43.144;24.684;2024-03-23T08:40:58;98762.69;;;15.98;38.52
22753;BME280;11543;43.144;24.684;2024-03-23T08:43:25;98763.03;;;16.10;37.75
22753;BME280;11543;43.144;24.684;2024-03-23T08:45:50;98730.94;;;16.07;38.22
22753;BME280;11543;43.144;24.684;2024-03-23T08:48:17;98731.50;;;16.23;37.99
22753;BME280;11543;43.144;24.684;2024-03-23T08:50:43;98745.88;;;16.45;38.04
22753;BME280;11543;43.144;24.684;2024-03-23T08:53:09;98743.06;;;16.53;35.88
22753;BME280;11543;43.144;24.684;2024-03-23T08:55:34;98726.41;;;16.56;36.22
22753;BME280;11543;43.144;24.684;2024-03-23T08:58:00;98716.09;;;16.67;36.45
22753;BME280;11543;43.144;24.684;2024-03-23T09:00:26;98716.63;;;16.83;36.41
22753;BME280;11543;43.144;24.684;2024-03-23T09:02:51;98732.63;;;17.06;35.52
22753;BME280;11543;43.144;24.684;2024-03-23T09:05:18;98732.69;;;17.19;36.43
22753;BME280;11543;43.144;24.684;2024-03-23T09:07:43;98719.38;;;17.25;36.22
22753;BME280;11543;43.144;24.684;2024-03-23T09:10:09;98697.09;;;17.29;36.13
22753;BME280;11543;43.144;24.684;2024-03-23T09:12:34;98701.59;;;17.57;36.41
22753;BME280;11543;43.144;24.684;2024-03-23T09:15:00;98706.28;;;17.76;35.02
22753;BME280;11543;43.144;24.684;2024-03-23T09:17:25;98700.03;;;17.82;35.19
22753;BME280;11543;43.144;24.684;2024-03-23T09:19:51;98687.56;;;18.01;34.74
22753;BME280;11543;43.144;24.684;2024-03-23T09:22:17;98672.94;;;18.08;34.12
22753;BME280;11543;43.144;24.684;2024-03-23T09:24:42;98687.19;;;18.30;33.43
22753;BME280;11543;43.144;24.684;2024-03-23T09:27:08;98681.75;;;18.43;32.96
22753;BME280;11543;43.144;24.684;2024-03-23T09:29:33;98667.75;;;18.46;32.38
22753;BME280;11543;43.144;24.684;2024-03-23T09:31:59;98654.59;;;18.50;32.04
22753;BME280;11543;43.144;24.684;2024-03-23T09:34:24;98652.91;;;18.56;32.53
22753;BME280;11543;43.144;24.684;2024-03-23T09:36:53;98674.00;;;18.80;32.62
22753;BME280;11543;43.144;24.684;2024-03-23T09:39:18;98655.81;;;18.81;31.97
22753;BME280;11543;43.144;24.684;2024-03-23T09:41:45;98649.09;;;18.90;31.76
22753;BME280;11543;43.144;24.684;2024-03-23T09:44:10;98646.19;;;18.91;32.40
22753;BME280;11543;43.144;24.684;2024-03-23T09:46:36;98637.78;;;18.99;32.13
22753;BME280;11543;43.144;24.684;2024-03-23T09:49:02;98664.31;;;19.24;31.78
22753;BME280;11543;43.144;24.684;2024-03-23T09:51:31;98648.59;;;19.26;31.14
22753;BME280;11543;43.144;24.684;2024-03-23T09:53:57;98651.88;;;19.41;31.79
22753;BME280;11543;43.144;24.684;2024-03-23T09:56:22;98637.25;;;19.35;31.94
22753;BME280;11543;43.144;24.684;2024-03-23T09:58:49;98640.13;;;19.47;32.25
22753;BME280;11543;43.144;24.684;2024-03-23T10:01:14;98646.16;;;19.94;31.83
22753;BME280;11543;43.144;24.684;2024-03-23T10:03:46;98631.16;;;20.16;31.79
22753;BME280;11543;43.144;24.684;2024-03-23T10:06:12;98640.44;;;20.33;31.75
22753;BME280;11543;43.144;24.684;2024-03-23T10:08:37;98632.00;;;20.42;30.96
22753;BME280;11543;43.144;24.684;2024-03-23T10:11:14;98623.09;;;20.53;31.31
22753;BME280;11543;43.144;24.684;2024-03-23T10:13:42;98620.69;;;20.63;31.58
22753;BME280;11543;43.144;24.684;2024-03-23T10:16:08;98622.00;;;20.79;30.75
22753;BME280;11543;43.144;24.684;2024-03-23T10:18:41;98597.56;;;20.90;31.15
22753;BME280;11543;43.144;24.684;2024-03-23T10:23:35;98601.72;;;21.29;30.41
22753;BME280;11543;43.144;24.684;2024-03-23T10:26:24;98597.09;;;21.60;29.87
22753;BME280;11543;43.144;24.684;2024-03-23T10:31:25;98587.03;;;22.02;29.01
22753;BME280;11543;43.144;24.684;2024-03-23T10:33:50;98588.16;;;22.24;29.02
22753;BME280;11543;43.144;24.684;2024-03-23T10:36:19;98582.69;;;22.24;29.10
22753;BME280;11543;43.144;24.684;2024-03-23T10:38:46;98548.34;;;22.17;29.58
22753;BME280;11543;43.144;24.684;2024-03-23T10:41:12;98577.09;;;22.43;29.26
22753;BME280;11543;43.144;24.684;2024-03-23T10:43:38;98560.81;;;22.48;28.39
22753;BME280;11543;43.144;24.684;2024-03-23T10:46:05;98564.41;;;22.60;28.29
22753;BME280;11543;43.144;24.684;2024-03-23T10:48:33;98562.25;;;22.62;28.56
22753;BME280;11543;43.144;24.684;2024-03-23T10:50:59;98545.25;;;22.60;28.08
22753;BME280;11543;43.144;24.684;2024-03-23T10:53:26;98535.03;;;22.67;27.68
22753;BME280;11543;43.144;24.684;2024-03-23T10:55:52;98532.16;;;22.74;27.62
22753;BME280;11543;43.144;24.684;2024-03-23T10:58:26;98528.13;;;22.76;26.84
22753;BME280;11543;43.144;24.684;2024-03-23T11:00:53;98536.22;;;22.71;26.07
22753;BME280;11543;43.144;24.684;2024-03-23T11:03:33;98536.69;;;22.68;26.78
22753;BME280;11543;43.144;24.684;2024-03-23T11:05:59;98502.81;;;22.46;27.46
22753;BME280;11543;43.144;24.684;2024-03-23T11:08:35;98523.97;;;22.62;27.04
22753;BME280;11543;43.144;24.684;2024-03-23T11:11:22;98520.75;;;22.53;28.20
22753;BME280;11543;43.144;24.684;2024-03-23T11:13:53;98500.91;;;22.46;28.16
22753;BME280;11543;43.144;24.684;2024-03-23T11:16:26;98488.66;;;22.49;28.53
22753;BME280;11543;43.144;24.684;2024-03-23T11:19:33;98501.13;;;22.68;27.99
22753;BME280;11543;43.144;24.684;2024-03-23T11:21:59;98474.28;;;22.65;28.41
22753;BME280;11543;43.144;24.684;2024-03-23T11:24:25;98476.28;;;22.81;27.24
22753;BME280;11543;43.144;24.684;2024-03-23T11:26:51;98477.94;;;22.82;25.46
22753;BME280;11543;43.144;24.684;2024-03-23T11:29:17;98474.34;;;22.94;26.74
22753;BME280;11543;43.144;24.684;2024-03-23T11:31:50;98482.09;;;23.13;26.25
22753;BME280;11543;43.144;24.684;2024-03-23T11:34:16;98468.16;;;23.15;26.58
22753;BME280;11543;43.144;24.684;2024-03-23T11:36:46;98461.53;;;23.11;26.08
22753;BME280;11543;43.144;24.684;2024-03-23T11:39:18;98471.50;;;23.17;25.79
22753;BME280;11543;43.144;24.684;2024-03-23T11:41:52;98464.94;;;22.90;25.36
22753;BME280;11543;43.144;24.684;2024-03-23T11:44:23;98453.31;;;22.82;26.04
22753;BME280;11543;43.144;24.684;2024-03-23T11:46:49;98464.13;;;22.89;26.28
22753;BME280;11543;43.144;24.684;2024-03-23T11:49:44;98440.38;;;22.66;26.21
22753;BME280;11543;43.144;24.684;2024-03-23T11:52:09;98432.44;;;22.53;27.14
22753;BME280;11543;43.144;24.684;2024-03-23T11:54:35;98437.06;;;22.64;27.34
22753;BME280;11543;43.144;24.684;2024-03-23T11:57:02;98412.59;;;22.58;26.53
22753;BME280;11543;43.144;24.684;2024-03-23T11:59:42;98421.19;;;22.90;27.36
22753;BME280;11543;43.144;24.684;2024-03-23T12:02:10;98430.16;;;23.02;27.03
22753;BME280;11543;43.144;24.684;2024-03-23T12:04:37;98413.25;;;23.05;26.98
22753;BME280;11543;43.144;24.684;2024-03-23T12:07:20;98405.81;;;23.17;26.62
22753;BME280;11543;43.144;24.684;2024-03-23T12:10:05;98399.19;;;23.30;25.92
22753;BME280;11543;43.144;24.684;2024-03-23T12:12:33;98390.81;;;23.36;25.68
22753;BME280;11543;43.144;24.684;2024-03-23T12:15:03;98398.41;;;23.46;25.15
22753;BME280;11543;43.144;24.684;2024-03-23T12:17:29;98397.44;;;23.40;25.50
22753;BME280;11543;43.144;24.684;2024-03-23T12:19:54;98379.88;;;23.36;25.43
22753;BME280;11543;43.144;24.684;2024-03-23T12:22:23;98383.75;;;23.40;25.36
22753;BME280;11543;43.144;24.684;2024-03-23T12:24:49;98374.97;;;23.38;25.27
22753;BME280;11543;43.144;24.684;2024-03-23T12:27:15;98382.78;;;23.46;26.10
22753;BME280;11543;43.144;24.684;2024-03-23T12:29:41;98361.38;;;23.43;25.18
22753;BME280;11543;43.144;24.684;2024-03-23T12:32:08;98377.00;;;23.43;25.54
22753;BME280;11543;43.144;24.684;2024-03-23T12:34:34;98354.91;;;23.33;25.47
22753;BME280;11543;43.144;24.684;2024-03-23T12:37:00;98346.59;;;23.28;25.42
22753;BME280;11543;43.144;24.684;2024-03-23T12:39:25;98363.03;;;23.28;24.86
22753;BME280;11543;43.144;24.684;2024-03-23T12:41:51;98357.47;;;23.06;25.17
22753;BME280;11543;43.144;24.684;2024-03-23T12:44:18;98355.88;;;23.10;25.34
22753;BME280;11543;43.144;24.684;2024-03-23T12:46:44;98343.19;;;23.04;25.96
22753;BME280;11543;43.144;24.684;2024-03-23T12:49:10;98334.81;;;23.10;25.01
22753;BME280;11543;43.144;24.684;2024-03-23T12:51:36;98330.19;;;23.11;25.61
22753;BME280;11543;43.144;24.684;2024-03-23T12:54:03;98309.94;;;23.12;25.71
22753;BME280;11543;43.144;24.684;2024-03-23T12:56:29;98331.66;;;23.35;25.58
22753;BME280;11543;43.144;24.684;2024-03-23T12:58:55;98328.44;;;23.38;25.14
22753;BME280;11543;43.144;24.684;2024-03-23T13:01:23;98326.78;;;23.54;24.49
22753;BME280;11543;43.144;24.684;2024-03-23T13:03:49;98325.56;;;23.62;24.12
22753;BME280;11543;43.144;24.684;2024-03-23T13:06:16;98314.34;;;23.46;24.87
22753;BME280;11543;43.144;24.684;2024-03-23T13:08:44;98305.63;;;23.49;24.83
22753;BME280;11543;43.144;24.684;2024-03-23T13:11:09;98292.44;;;23.46;25.70
22753;BME280;11543;43.144;24.684;2024-03-23T13:13:38;98298.66;;;23.59;25.15
22753;BME280;11543;43.144;24.684;2024-03-23T13:16:04;98318.06;;;23.74;25.46
22753;BME280;11543;43.144;24.684;2024-03-23T13:18:31;98289.38;;;23.60;25.28
22753;BME280;11543;43.144;24.684;2024-03-23T13:20:59;98281.41;;;23.58;25.21
22753;BME280;11543;43.144;24.684;2024-03-23T13:23:25;98288.38;;;23.66;25.77
22753;BME280;11543;43.144;24.684;2024-03-23T13:25:52;98288.81;;;23.79;25.93
22753;BME280;11543;43.144;24.684;2024-03-23T13:28:21;98272.91;;;23.76;25.31
22753;BME280;11543;43.144;24.684;2024-03-23T13:30:54;98264.41;;;23.78;25.54
22753;BME280;11543;43.144;24.684;2024-03-23T13:33:20;98287.75;;;24.02;25.19
22753;BME280;11543;43.144;24.684;2024-03-23T13:35:52;98282.19;;;23.97;25.28
22753;BME280;11543;43.144;24.684;2024-03-23T13:38:19;98265.06;;;23.85;24.83
22753;BME280;11543;43.144;24.684;2024-03-23T13:40:58;98277.28;;;23.99;24.09
22753;BME280;11543;43.144;24.684;2024-03-23T13:43:24;98276.16;;;23.95;24.48
22753;BME280;11543;43.144;24.684;2024-03-23T13:45:54;98278.94;;;24.00;23.99
22753;BME280;11543;43.144;24.684;2024-03-23T13:48:21;98273.34;;;23.90;24.11
22753;BME280;11543;43.144;24.684;2024-03-23T13:50:47;98275.00;;;23.91;24.32